createdAt,value
2022-09-06T00:01:42.959Z,4.80
2022-09-06T00:04:15.455Z,5.27
2022-09-06T00:06:45.344Z,4.90
2022-09-06T00:09:15.028Z,4.93
2022-09-06T00:11:44.826Z,5.97
2022-09-06T00:14:17.060Z,5.43
2022-09-06T00:16:46.978Z,4.87
2022-09-06T00:19:16.668Z,5.70
2022-09-06T00:21:46.415Z,4.80
2022-09-06T00:24:16.419Z,5.13
2022-09-06T00:26:46.075Z,5.83
2022-09-06T00:29:18.335Z,6.20
2022-09-06T00:31:48.046Z,5.23
2022-09-06T00:34:17.718Z,5.50
2022-09-06T00:36:47.383Z,5.93
2022-09-06T00:39:17.167Z,5.67
2022-09-06T00:41:46.865Z,6.00
2022-09-06T00:44:19.372Z,5.43
2022-09-06T00:46:52.059Z,5.90
2022-09-06T00:49:25.742Z,6.37
2022-09-06T00:51:58.517Z,6.33
2022-09-06T00:54:28.967Z,6.07
2022-09-06T00:57:00.339Z,5.70
2022-09-06T00:59:36.248Z,6.70
2022-09-06T01:02:07.277Z,6.43
2022-09-06T01:04:37.436Z,5.90
2022-09-06T01:07:15.613Z,5.57
2022-09-06T01:09:59.261Z,7.07
2022-09-06T01:12:40.531Z,6.30
2022-09-06T01:15:25.914Z,6.50
2022-09-06T01:18:04.631Z,6.30
2022-09-06T01:20:56.067Z,6.57
2022-09-06T01:23:58.333Z,6.80
2022-09-06T01:26:52.893Z,8.57
2022-09-06T01:29:35.497Z,6.53
2022-09-06T01:32:16.788Z,6.80
2022-09-06T01:34:51.448Z,6.80
2022-09-06T01:37:22.985Z,7.10
2022-09-06T01:39:53.097Z,7.03
2022-09-06T01:42:26.688Z,7.63
2022-09-06T01:45:02.529Z,6.97
2022-09-06T01:47:40.890Z,7.80
2022-09-06T01:50:25.861Z,7.50
2022-09-06T01:53:07.181Z,7.77
2022-09-06T02:03:12.314Z,7.50
2022-09-06T02:05:47.469Z,8.10
2022-09-06T02:08:20.658Z,8.00
2022-09-06T02:10:55.599Z,7.90
2022-09-06T02:13:28.459Z,8.03
2022-09-06T02:16:03.782Z,8.40
2022-09-06T02:18:40.706Z,8.67
2022-09-06T02:21:13.286Z,7.90
2022-09-06T02:23:45.839Z,8.67
2022-09-06T02:26:21.096Z,7.93
2022-09-06T02:28:51.258Z,7.73
2022-09-06T02:31:24.788Z,8.07
2022-09-06T02:33:57.064Z,7.53
2022-09-06T02:36:27.286Z,8.23
2022-09-06T02:38:57.226Z,8.17
2022-09-06T02:41:27.655Z,8.10
2022-09-06T02:43:57.341Z,7.90
2022-09-06T02:46:27.059Z,8.20
2022-09-06T02:48:59.313Z,8.80
2022-09-06T02:51:28.913Z,7.83
2022-09-06T02:53:58.504Z,8.50
2022-09-06T02:56:28.086Z,8.03
2022-09-06T02:58:57.635Z,8.50
2022-09-06T03:01:27.208Z,7.80
2022-09-06T03:03:59.432Z,8.17
2022-09-06T03:06:29.558Z,8.20
2022-09-06T03:09:00.200Z,8.60
2022-09-06T03:11:30.022Z,8.30
2022-09-06T03:13:59.624Z,8.20
2022-09-06T03:16:29.373Z,8.43
2022-09-06T03:19:01.567Z,8.87
2022-09-06T03:21:31.202Z,7.97
2022-09-06T03:24:00.726Z,7.80
2022-09-06T03:26:30.731Z,8.40
2022-09-06T03:29:00.353Z,8.07
2022-09-06T03:31:29.966Z,8.07
2022-09-06T03:34:02.148Z,7.63
2022-09-06T03:36:31.848Z,8.83
2022-09-06T03:39:01.406Z,7.43
2022-09-06T03:41:30.943Z,9.07
2022-09-06T03:44:00.520Z,7.53
2022-09-06T03:46:30.922Z,8.40
2022-09-06T03:49:03.235Z,8.13
2022-09-06T03:51:32.807Z,8.40
2022-09-06T03:54:02.343Z,8.00
2022-09-06T03:56:31.978Z,7.70
2022-09-06T03:59:02.017Z,7.50
2022-09-06T04:01:32.046Z,8.13
2022-09-06T04:04:04.667Z,7.67
2022-09-06T04:06:34.271Z,8.30
2022-09-06T04:09:03.808Z,8.50
2022-09-06T04:11:33.370Z,8.23
2022-09-06T04:14:02.940Z,8.30
2022-09-06T04:16:32.568Z,8.20
2022-09-06T04:19:04.751Z,7.50
2022-09-06T04:21:34.626Z,8.10
2022-09-06T04:24:04.669Z,7.97
2022-09-06T04:26:34.238Z,7.80
2022-09-06T04:29:03.847Z,8.20
2022-09-06T04:31:33.455Z,8.67
2022-09-06T04:34:05.710Z,7.97
2022-09-06T04:36:35.264Z,8.43
2022-09-06T04:39:05.469Z,8.67
2022-09-06T04:41:35.098Z,8.30
2022-09-06T04:44:05.033Z,8.27
2022-09-06T04:46:34.592Z,8.40
2022-09-06T04:49:06.773Z,8.60
2022-09-06T04:51:37.414Z,7.50
2022-09-06T04:54:07.008Z,7.50
2022-09-06T04:56:36.582Z,8.40
2022-09-06T04:59:06.301Z,9.63
2022-09-06T05:01:35.886Z,7.57
2022-09-06T05:04:08.262Z,7.33
2022-09-06T05:06:39.277Z,7.57
2022-09-06T05:09:08.862Z,7.93
2022-09-06T05:11:38.774Z,7.80
2022-09-06T05:14:08.374Z,7.87
2022-09-06T05:16:38.079Z,7.30
2022-09-06T05:19:10.368Z,7.10
2022-09-06T05:21:39.930Z,7.67
2022-09-06T05:24:09.661Z,7.10
2022-09-06T05:26:39.426Z,7.50
2022-09-06T05:29:09.007Z,7.23
2022-09-06T05:31:38.899Z,7.10
2022-09-06T05:34:13.477Z,7.30
2022-09-06T05:36:43.172Z,6.70
2022-09-06T05:39:12.745Z,7.90
2022-09-06T05:41:42.390Z,8.30
2022-09-06T05:44:11.950Z,7.30
2022-09-06T05:46:45.290Z,8.13
2022-09-06T05:49:17.443Z,7.40
2022-09-06T05:51:47.008Z,7.77
2022-09-06T05:54:16.554Z,7.67
2022-09-06T05:56:46.130Z,7.57
2022-09-06T05:59:15.758Z,7.30
2022-09-06T06:01:51.114Z,7.27
2022-09-06T06:04:23.666Z,7.50
2022-09-06T06:06:53.645Z,7.80
2022-09-06T06:09:23.187Z,8.10
2022-09-06T06:11:52.762Z,8.60
2022-09-06T06:14:22.294Z,8.17
2022-09-06T06:16:52.069Z,8.97
2022-09-06T06:19:24.295Z,8.93
2022-09-06T06:21:53.868Z,9.10
2022-09-06T06:24:23.429Z,10.00
2022-09-06T06:26:53.101Z,9.27
2022-09-06T06:29:22.641Z,9.90
2022-09-06T06:31:52.250Z,9.17
2022-09-06T06:34:24.374Z,11.47
2022-09-06T06:36:53.950Z,10.57
2022-09-06T06:39:23.569Z,11.73
2022-09-06T06:41:53.451Z,11.87
2022-09-06T06:44:41.059Z,10.63
2022-09-06T06:47:11.768Z,10.40
2022-09-06T06:49:44.970Z,11.60
2022-09-06T06:52:14.661Z,10.40
2022-09-06T06:54:44.307Z,11.20
2022-09-06T06:57:13.942Z,10.63
2022-09-06T06:59:43.516Z,11.30
2022-09-06T07:02:15.859Z,12.20
2022-09-06T07:04:49.212Z,10.60
2022-09-06T07:07:36.614Z,10.80
2022-09-06T07:13:00.713Z,10.63
2022-09-06T07:15:30.498Z,10.63
2022-09-06T07:18:01.551Z,11.57
2022-09-06T07:26:18.152Z,11.60
2022-09-06T07:28:48.384Z,10.30
2022-09-06T07:34:09.488Z,9.83
2022-09-06T07:36:41.811Z,9.67
2022-09-06T07:39:12.480Z,10.83
2022-09-06T07:41:42.113Z,9.80
2022-09-06T07:44:12.808Z,9.90
2022-09-06T07:46:42.780Z,10.70
2022-09-06T07:49:12.419Z,11.03
2022-09-06T07:51:45.641Z,11.60
2022-09-06T07:54:31.766Z,9.87
2022-09-06T07:57:02.439Z,10.80
2022-09-06T07:59:32.082Z,10.43
2022-09-06T08:02:01.799Z,10.27
2022-09-06T08:04:31.547Z,10.17
2022-09-06T08:09:59.352Z,9.43
2022-09-06T08:12:30.931Z,9.43
2022-09-06T08:15:01.562Z,9.93
2022-09-06T08:17:35.226Z,9.50
2022-09-06T08:20:07.668Z,9.10
2022-09-06T08:22:39.816Z,9.00
2022-09-06T08:25:10.599Z,9.97
2022-09-06T08:27:40.167Z,10.00
2022-09-06T08:30:11.674Z,9.40
2022-09-06T08:32:42.828Z,9.63
2022-09-06T08:35:13.492Z,9.47
2022-09-06T08:37:45.657Z,10.57
2022-09-06T08:40:24.910Z,9.30
2022-09-06T08:42:54.801Z,9.80
2022-09-06T08:45:24.871Z,9.87
2022-09-06T08:47:54.576Z,10.13
2022-09-06T08:50:26.404Z,9.07
2022-09-06T08:53:16.840Z,9.37
2022-09-06T08:55:55.026Z,9.50
2022-09-06T08:58:40.688Z,8.40
2022-09-06T09:01:15.318Z,9.50
2022-09-06T09:03:49.193Z,9.27
2022-09-06T09:06:19.896Z,10.03
2022-09-06T09:09:03.518Z,8.57
2022-09-06T09:11:36.111Z,9.27
2022-09-06T09:14:08.700Z,9.10
2022-09-06T09:16:38.635Z,10.00
2022-09-06T09:19:09.483Z,8.83
2022-09-06T09:21:41.805Z,9.10
2022-09-06T09:24:16.087Z,9.00
2022-09-06T09:26:54.576Z,7.80
2022-09-06T09:29:28.690Z,8.83
2022-09-06T09:32:00.031Z,9.13
2022-09-06T09:34:34.158Z,8.70
2022-09-06T09:40:09.991Z,8.90
2022-09-06T09:42:40.862Z,9.60
2022-09-06T09:45:31.679Z,8.27
2022-09-06T09:48:20.359Z,9.40
2022-09-06T09:50:50.830Z,9.33
2022-09-06T09:53:23.457Z,8.57
2022-09-06T09:56:01.404Z,8.23
2022-09-06T09:58:35.730Z,8.43
2022-09-06T10:01:20.968Z,8.43
2022-09-06T10:09:37.306Z,8.17
2022-09-06T10:12:10.131Z,8.90
2022-09-06T10:14:44.917Z,8.43
2022-09-06T10:17:22.331Z,8.30
2022-09-06T10:19:52.994Z,7.20
2022-09-06T10:22:28.890Z,7.20
2022-09-06T10:25:27.904Z,7.63
2022-09-06T10:28:27.580Z,6.87
2022-09-06T10:31:32.804Z,6.87
2022-09-06T10:34:12.681Z,7.00
2022-09-06T10:36:50.940Z,6.43
2022-09-06T10:39:34.582Z,6.17
2022-09-06T10:42:18.935Z,7.60
2022-09-06T10:45:03.199Z,6.40
2022-09-06T10:47:40.547Z,7.07
2022-09-06T10:50:11.345Z,7.03
2022-09-06T10:52:47.438Z,6.37
2022-09-06T10:55:20.985Z,7.13
2022-09-06T11:00:50.158Z,6.43
2022-09-06T11:06:20.085Z,5.80
2022-09-06T11:09:00.040Z,6.50
2022-09-06T11:11:38.389Z,6.67
2022-09-06T11:14:12.512Z,6.50
2022-09-06T11:16:54.813Z,6.20
2022-09-06T11:19:31.212Z,6.23
2022-09-06T11:22:31.937Z,6.60
2022-09-06T11:25:26.146Z,6.47
2022-09-06T11:28:00.399Z,6.87
2022-09-06T11:30:34.493Z,7.23
2022-09-06T11:33:25.502Z,6.03
2022-09-06T11:35:56.862Z,5.97
2022-09-06T11:38:29.499Z,6.73
2022-09-06T11:41:03.965Z,6.07
2022-09-06T11:43:51.180Z,6.23
2022-09-06T11:46:51.224Z,5.10
2022-09-06T11:49:41.433Z,6.30
2022-09-06T11:52:41.309Z,7.03
2022-09-06T11:55:14.895Z,6.70
2022-09-06T11:57:45.520Z,6.30
2022-09-06T12:00:24.469Z,6.27
2022-09-06T12:06:21.898Z,6.90
2022-09-06T12:08:52.815Z,5.80
2022-09-06T12:11:37.527Z,5.10
2022-09-06T12:14:11.120Z,6.10
2022-09-06T12:17:11.523Z,6.13
2022-09-06T12:19:45.314Z,6.27
2022-09-06T12:22:46.137Z,5.90
2022-09-06T12:25:23.066Z,5.70
2022-09-06T12:27:57.025Z,6.00
2022-09-06T12:30:38.090Z,6.17
2022-09-06T12:33:13.940Z,6.30
2022-09-06T12:36:03.325Z,6.17
2022-09-06T12:38:35.493Z,6.27
2022-09-06T12:41:08.929Z,5.47
2022-09-06T12:43:41.973Z,5.70
2022-09-06T12:46:11.818Z,5.20
2022-09-06T12:48:44.485Z,6.03
2022-09-06T12:51:23.606Z,5.33
2022-09-06T12:53:56.633Z,5.37
2022-09-06T12:56:32.942Z,5.70
2022-09-06T12:59:17.233Z,4.80
2022-09-06T13:01:53.038Z,5.83
2022-09-06T13:04:30.195Z,5.43
2022-09-06T13:07:01.991Z,4.80
2022-09-06T13:09:33.076Z,4.73
2022-09-06T13:12:13.387Z,6.27
2022-09-06T13:14:43.519Z,5.53
2022-09-06T13:17:26.542Z,4.67
2022-09-06T13:19:58.191Z,5.00
2022-09-06T13:22:46.287Z,5.43
2022-09-06T13:25:20.871Z,5.60
2022-09-06T13:27:57.763Z,5.40
2022-09-06T13:30:42.769Z,4.33
2022-09-06T13:33:27.079Z,5.47
2022-09-06T13:36:09.504Z,5.00
2022-09-06T13:38:43.593Z,5.00
2022-09-06T13:41:42.052Z,4.50
2022-09-06T13:44:32.057Z,3.93
2022-09-06T13:47:05.994Z,4.13
2022-09-06T13:49:36.741Z,3.70
2022-09-06T13:52:08.205Z,3.90
2022-09-06T13:54:40.046Z,5.30
2022-09-06T13:57:10.743Z,4.37
2022-09-06T13:59:43.101Z,4.83
2022-09-06T14:02:16.039Z,4.40
2022-09-06T14:04:45.814Z,5.60
2022-09-06T14:07:16.574Z,4.20
2022-09-06T14:09:51.244Z,4.47
2022-09-06T14:12:21.001Z,4.40
2022-09-06T14:14:53.278Z,3.90
2022-09-06T14:17:23.285Z,4.40
2022-09-06T14:19:53.075Z,4.53
2022-09-06T14:22:23.821Z,4.20
2022-09-06T14:24:53.854Z,4.30
2022-09-06T14:27:24.752Z,4.13
2022-09-06T14:29:57.362Z,4.30
2022-09-06T14:32:27.306Z,4.73
2022-09-06T14:34:56.982Z,4.57
2022-09-06T14:37:26.782Z,4.17
2022-09-06T14:39:56.733Z,4.60
2022-09-06T14:42:28.436Z,3.93
2022-09-06T14:45:01.818Z,4.13
2022-09-06T14:47:31.873Z,4.50
2022-09-06T14:50:10.752Z,4.57
2022-09-06T14:52:40.622Z,4.33
2022-09-06T14:55:11.153Z,4.20
2022-09-06T14:57:46.198Z,4.80
2022-09-06T15:00:19.403Z,4.70
2022-09-06T15:02:49.324Z,4.40
2022-09-06T15:05:19.234Z,5.27
2022-09-06T15:07:48.983Z,4.60
2022-09-06T15:10:19.428Z,4.53
2022-09-06T15:12:50.123Z,4.20
2022-09-06T15:15:23.875Z,3.93
2022-09-06T15:17:55.003Z,4.20
2022-09-06T15:20:26.365Z,3.87
2022-09-06T15:23:21.802Z,4.70
2022-09-06T15:25:56.483Z,4.27
2022-09-06T15:28:27.174Z,3.93
2022-09-06T15:31:00.686Z,4.53
2022-09-06T15:33:31.787Z,4.30
2022-09-06T15:36:06.575Z,4.37
2022-09-06T15:38:40.362Z,3.80
2022-09-06T15:41:12.958Z,3.37
2022-09-06T15:43:52.076Z,3.20
2022-09-06T15:46:44.797Z,3.53
2022-09-06T15:49:18.493Z,4.90
2022-09-06T15:51:50.071Z,4.13
2022-09-06T15:54:41.879Z,4.17
2022-09-06T15:57:12.016Z,3.90
2022-09-06T15:59:43.500Z,3.50
2022-09-06T16:02:16.181Z,4.67
2022-09-06T16:04:49.403Z,3.77
2022-09-06T16:07:19.670Z,3.83
2022-09-06T16:09:49.387Z,3.93
2022-09-06T16:12:19.272Z,4.23
2022-09-06T16:14:51.043Z,3.70
2022-09-06T16:17:27.464Z,4.07
2022-09-06T16:19:59.206Z,3.97
2022-09-06T16:22:30.764Z,4.20
2022-09-06T16:25:00.435Z,4.37
2022-09-06T16:27:30.318Z,3.67
2022-09-06T16:30:00.092Z,3.90
2022-09-06T16:32:32.480Z,3.80
2022-09-06T16:35:06.776Z,4.30
2022-09-06T16:37:38.548Z,3.17
2022-09-06T16:40:10.057Z,3.90
2022-09-06T16:42:39.883Z,4.77
2022-09-06T16:45:20.044Z,4.27
2022-09-06T16:47:55.873Z,4.07
2022-09-06T16:50:27.458Z,4.07
2022-09-06T16:52:57.247Z,4.20
2022-09-06T16:55:28.186Z,3.57
2022-09-06T16:58:01.201Z,3.20
2022-09-06T17:00:31.191Z,3.63
2022-09-06T17:03:03.501Z,4.03
2022-09-06T17:05:34.553Z,4.27
2022-09-06T17:08:04.422Z,4.03
2022-09-06T17:10:42.503Z,3.50
2022-09-06T17:13:14.332Z,3.13
2022-09-06T17:15:56.684Z,3.83
2022-09-06T17:18:31.048Z,4.07
2022-09-06T17:21:05.033Z,4.00
2022-09-06T17:23:35.226Z,4.20
2022-09-06T17:26:07.035Z,3.77
2022-09-06T17:28:37.435Z,4.17
2022-09-06T17:31:09.298Z,3.93
2022-09-06T17:33:41.704Z,4.00
2022-09-06T17:36:13.749Z,4.20
2022-09-06T17:38:44.888Z,4.27
2022-09-06T17:41:22.361Z,4.03
2022-09-06T17:43:55.703Z,3.60
2022-09-06T17:46:28.852Z,4.23
2022-09-06T17:49:02.923Z,4.03
2022-09-06T17:51:35.754Z,3.67
2022-09-06T17:54:06.014Z,4.33
2022-09-06T17:56:38.102Z,3.80
2022-09-06T17:59:09.682Z,3.90
2022-09-06T18:01:41.270Z,3.73
2022-09-06T18:04:14.903Z,3.93
2022-09-06T18:06:46.847Z,3.70
2022-09-06T18:09:18.878Z,4.17
2022-09-06T18:11:50.639Z,4.20
2022-09-06T18:14:21.945Z,4.03
2022-09-06T18:16:54.582Z,3.80
2022-09-06T18:19:27.923Z,4.40
2022-09-06T18:22:01.268Z,5.20
2022-09-06T18:24:31.127Z,4.57
2022-09-06T18:27:02.850Z,4.87
2022-09-06T18:29:33.109Z,4.03
2022-09-06T18:32:03.020Z,4.70
2022-09-06T18:34:35.565Z,4.43
2022-09-06T18:37:05.861Z,4.37
2022-09-06T18:39:35.640Z,4.40
2022-09-06T18:42:11.112Z,4.63
2022-09-06T18:44:43.784Z,3.93
2022-09-06T18:47:14.879Z,4.60
2022-09-06T18:49:52.885Z,4.30
2022-09-06T18:52:24.605Z,4.60
2022-09-06T18:54:54.351Z,4.40
2022-09-06T18:57:25.082Z,4.37
2022-09-06T18:59:58.264Z,3.40
2022-09-06T19:02:28.832Z,3.83
2022-09-06T19:05:01.195Z,5.00
2022-09-06T19:07:30.870Z,3.90
2022-09-06T19:10:00.663Z,4.60
2022-09-06T19:12:30.387Z,4.60
2022-09-06T19:15:01.185Z,4.80
2022-09-06T19:17:31.205Z,5.13
2022-09-06T19:20:03.549Z,4.40
2022-09-06T19:22:33.359Z,4.90
2022-09-06T19:25:03.180Z,5.17
2022-09-06T19:27:34.594Z,4.97
2022-09-06T19:30:07.180Z,5.13
2022-09-06T19:32:37.144Z,4.73
2022-09-06T19:35:15.651Z,5.23
2022-09-06T19:37:45.421Z,5.20
2022-09-06T19:40:16.243Z,4.83
2022-09-06T19:42:47.113Z,4.30
2022-09-06T19:45:18.160Z,4.60
2022-09-06T19:47:47.843Z,5.00
2022-09-06T19:50:21.287Z,5.03
2022-09-06T19:52:50.987Z,5.03
2022-09-06T19:55:20.678Z,4.80
2022-09-06T19:57:50.354Z,5.00
2022-09-06T20:00:20.155Z,4.43
2022-09-06T20:02:49.974Z,5.23
2022-09-06T20:05:22.359Z,5.47
2022-09-06T20:07:52.319Z,5.53
2022-09-06T20:10:22.328Z,5.90
2022-09-06T20:12:54.086Z,5.37
2022-09-06T20:15:26.871Z,6.23
2022-09-06T20:17:56.645Z,4.80
2022-09-06T20:20:29.054Z,5.50
2022-09-06T20:22:58.752Z,5.40
2022-09-06T20:25:28.768Z,4.97
2022-09-06T20:27:58.709Z,6.20
2022-09-06T20:30:30.218Z,5.77
2022-09-06T20:33:00.150Z,5.90
2022-09-06T20:35:37.974Z,5.40
2022-09-06T20:38:07.662Z,5.70
2022-09-06T20:40:38.502Z,5.60
2022-09-06T20:43:08.239Z,6.10
2022-09-06T20:45:40.228Z,5.40
2022-09-06T20:48:10.993Z,5.70
2022-09-06T20:50:44.359Z,6.20
2022-09-06T20:53:19.269Z,5.57
2022-09-06T20:55:58.578Z,5.70
2022-09-06T20:58:28.657Z,5.10
2022-09-06T21:00:58.854Z,5.90
2022-09-06T21:03:29.501Z,5.63
2022-09-06T21:06:03.162Z,5.00
2022-09-06T21:08:35.038Z,6.20
2022-09-06T21:11:07.888Z,6.40
2022-09-06T21:13:38.352Z,6.50
2022-09-06T21:16:09.057Z,5.67
2022-09-06T21:18:39.306Z,6.27
2022-09-06T21:21:12.718Z,5.30
2022-09-06T21:23:42.435Z,7.00
2022-09-06T21:26:15.889Z,6.50
2022-09-06T21:28:47.492Z,6.00
2022-09-06T21:31:19.010Z,6.00
2022-09-06T21:33:52.623Z,5.93
2022-09-06T21:36:29.287Z,5.90
2022-09-06T21:39:00.247Z,7.20
2022-09-06T21:41:30.918Z,6.07
2022-09-06T21:44:02.730Z,5.60
2022-09-06T21:46:34.557Z,7.00
2022-09-06T21:49:07.176Z,6.17
2022-09-06T21:51:40.104Z,6.13
2022-09-06T21:54:09.952Z,6.50
2022-09-06T21:56:41.183Z,6.40
2022-09-06T21:59:12.106Z,6.00
2022-09-06T22:01:45.248Z,6.00
2022-09-06T22:04:15.201Z,6.33
2022-09-06T22:06:47.646Z,6.00
2022-09-06T22:09:17.345Z,5.63
2022-09-06T22:11:47.287Z,6.87
2022-09-06T22:14:17.774Z,6.23
2022-09-06T22:16:47.512Z,5.73
2022-09-06T22:19:17.227Z,6.73
2022-09-06T22:21:49.461Z,6.30
2022-09-06T22:24:19.382Z,7.30
2022-09-06T22:26:49.303Z,6.57
2022-09-06T22:29:18.982Z,7.40
2022-09-06T22:31:48.678Z,6.47
2022-09-06T22:34:18.367Z,5.93
2022-09-06T22:36:50.845Z,7.23
2022-09-06T22:39:20.510Z,6.50
2022-09-06T22:41:50.178Z,7.43
2022-09-06T22:44:20.149Z,6.50
2022-09-06T22:46:50.088Z,7.03
2022-09-06T22:49:19.857Z,6.70
2022-09-06T22:51:53.663Z,6.93
2022-09-06T22:54:23.412Z,6.37
2022-09-06T22:56:53.107Z,6.50
2022-09-06T22:59:22.988Z,7.17
2022-09-06T23:01:52.714Z,6.20
2022-09-06T23:04:22.619Z,8.20
2022-09-06T23:06:54.868Z,6.63
2022-09-06T23:09:24.548Z,7.40
2022-09-06T23:11:54.400Z,7.67
2022-09-06T23:14:24.078Z,7.87
2022-09-06T23:16:53.726Z,7.43
2022-09-06T23:19:23.393Z,6.67
2022-09-06T23:21:55.664Z,7.90
2022-09-06T23:24:25.481Z,8.30
2022-09-06T23:26:55.596Z,8.27
2022-09-06T23:29:25.373Z,7.60
2022-09-06T23:31:55.180Z,7.53
2022-09-06T23:34:24.957Z,7.63
2022-09-06T23:37:00.091Z,6.80
2022-09-06T23:39:30.384Z,7.50
2022-09-06T23:42:02.108Z,7.80
2022-09-06T23:44:31.886Z,7.83
2022-09-06T23:47:01.834Z,7.67
2022-09-06T23:49:31.618Z,7.97
2022-09-06T23:52:04.092Z,8.50
2022-09-06T23:54:33.756Z,8.83
2022-09-06T23:57:03.420Z,8.37
2022-09-06T23:59:34.838Z,8.60
